Time;durP1;ratioP1;P1;durP2;ratioP2;P2;SDS_P1;SDS_P2;PMS_P1;PMS_P2;Temp;Humidity;BMP_temperature;BMP_pressure;BME280_temperature;BME280_humidity;BME280_pressure;Samples;Min_cycle;Max_cycle;Signal;HPM_P1;HPM_P2
2021/03/31 00:01:41;;;;;;;12.30;9.53;;;8.30;99.90;;;;;;5006974;28;20210;-78
2021/03/31 00:04:07;;;;;;;10.87;9.73;;;8.30;99.90;;;;;;5008626;28;20205;-78
2021/03/31 00:06:34;;;;;;;12.00;9.50;;;8.30;99.90;;;;;;5011317;28;20214;-78
2021/03/31 00:09:01;;;;;;;10.57;9.47;;;8.30;99.90;;;;;;5011170;28;20221;-78
2021/03/31 00:11:27;;;;;;;12.30;9.33;;;8.30;99.90;;;;;;5008378;28;20242;-78
2021/03/31 00:13:54;;;;;;;10.60;9.43;;;8.20;99.90;;;;;;5013847;28;20196;-77
2021/03/31 00:16:20;;;;;;;10.10;9.07;;;8.20;99.90;;;;;;5015065;28;20208;-78
2021/03/31 00:18:46;;;;;;;9.90;8.90;;;8.10;99.90;;;;;;5014216;28;20216;-78
2021/03/31 00:21:13;;;;;;;9.73;8.80;;;8.00;99.90;;;;;;5002754;28;20199;-78
2021/03/31 00:23:39;;;;;;;11.00;9.00;;;7.90;99.90;;;;;;5007608;28;20201;-78
2021/03/31 00:26:07;;;;;;;10.67;9.00;;;7.80;99.90;;;;;;5010972;28;20210;-78
2021/03/31 00:28:33;;;;;;;10.50;9.40;;;7.80;99.90;;;;;;5015349;28;20198;-78
2021/03/31 00:31:00;;;;;;;11.63;9.33;;;7.70;99.90;;;;;;5010841;28;20216;-78
2021/03/31 00:33:26;;;;;;;9.80;8.80;;;7.70;99.90;;;;;;5009000;28;20268;-78
2021/03/31 00:35:52;;;;;;;9.97;8.63;;;7.70;99.90;;;;;;5012339;28;20580;-78
2021/03/31 00:38:20;;;;;;;9.57;8.63;;;7.60;99.90;;;;;;5008952;28;20285;-78
2021/03/31 00:40:48;;;;;;;11.23;9.47;;;7.60;99.90;;;;;;5020267;28;20262;-78
2021/03/31 00:43:15;;;;;;;10.30;9.10;;;7.60;99.90;;;;;;5026670;28;20201;-79
2021/03/31 00:45:42;;;;;;;10.50;9.17;;;7.60;99.90;;;;;;5018302;28;20201;-78
2021/03/31 00:48:09;;;;;;;10.20;9.17;;;7.50;99.90;;;;;;5022592;28;20202;-79
2021/03/31 00:50:36;;;;;;;10.07;9.00;;;7.60;99.90;;;;;;5017145;28;20219;-78
2021/03/31 00:53:02;;;;;;;9.07;8.20;;;7.60;99.90;;;;;;5019009;28;20257;-79
2021/03/31 00:55:30;;;;;;;9.60;8.70;;;7.50;99.90;;;;;;5020509;28;20201;-78
2021/03/31 00:57:58;;;;;;;10.57;8.57;;;7.50;99.90;;;;;;5028493;28;20647;-78
2021/03/31 01:00:26;;;;;;;9.87;8.50;;;7.40;99.90;;;;;;5014760;28;20224;-78
2021/03/31 01:02:52;;;;;;;10.40;9.30;;;7.40;99.90;;;;;;5017645;28;20262;-78
2021/03/31 01:05:22;;;;;;;10.93;8.53;;;7.30;99.90;;;;;;5025363;28;20628;-78
2021/03/31 01:07:49;;;;;;;10.40;8.63;;;7.30;99.90;;;;;;5023831;28;20258;-77
2021/03/31 01:10:19;;;;;;;9.40;8.40;;;7.20;99.90;;;;;;5025117;23;20255;-77
2021/03/31 01:12:57;;;;;;;11.17;9.37;;;7.20;99.90;;;;;;5011890;28;20193;-78
2021/03/31 01:15:30;;;;;;;9.80;8.87;;;7.10;99.90;;;;;;5008146;28;20206;-77
2021/03/31 01:18:03;;;;;;;11.03;9.10;;;7.10;99.90;;;;;;5008437;28;20206;-78
2021/03/31 01:21:02;;;;;;;9.33;8.33;;;7.10;99.90;;;;;;4996075;28;20600;-78
2021/03/31 01:23:52;;;;;;;9.30;8.40;;;7.10;99.90;;;;;;5004790;28;20212;-78
2021/03/31 01:26:25;;;;;;;9.87;8.93;;;7.10;99.90;;;;;;5011170;28;20209;-78
2021/03/31 01:29:10;;;;;;;9.97;8.97;;;7.00;99.90;;;;;;5003528;28;20221;-78
2021/03/31 01:31:47;;;;;;;9.30;8.50;;;7.10;99.90;;;;;;5000796;28;20189;-77
2021/03/31 01:34:35;;;;;;;9.27;8.37;;;7.10;99.90;;;;;;5009580;28;20259;-77
2021/03/31 01:37:06;;;;;;;10.43;8.20;;;7.10;99.90;;;;;;5001816;28;20197;-78
2021/03/31 01:39:35;;;;;;;10.97;9.03;;;7.00;99.90;;;;;;5005046;28;20213;-78
2021/03/31 01:42:03;;;;;;;9.77;8.60;;;7.00;99.90;;;;;;5010364;28;20619;-78
2021/03/31 01:44:29;;;;;;;14.57;10.37;;;7.00;99.90;;;;;;5005228;28;20197;-77
2021/03/31 01:46:57;;;;;;;16.37;11.67;;;7.00;99.90;;;;;;5012195;28;20272;-78
2021/03/31 01:49:27;;;;;;;15.63;11.57;;;7.10;99.90;;;;;;5013276;28;20223;-78
2021/03/31 01:51:57;;;;;;;14.47;11.00;;;7.10;99.90;;;;;;5004031;28;20263;-78
2021/03/31 01:54:24;;;;;;;12.60;10.77;;;7.10;99.90;;;;;;5008390;28;20228;-78
2021/03/31 01:56:52;;;;;;;14.27;11.13;;;7.10;99.90;;;;;;5011347;28;20558;-78
2021/03/31 01:59:19;;;;;;;17.63;11.40;;;7.10;99.90;;;;;;5012413;28;20224;-77
2021/03/31 02:01:47;;;;;;;18.17;12.80;;;7.10;99.90;;;;;;5005514;28;20292;-78
2021/03/31 02:04:15;;;;;;;15.13;12.40;;;7.00;99.90;;;;;;5008761;28;20196;-77
2021/03/31 02:06:43;;;;;;;15.47;12.17;;;7.00;99.90;;;;;;5008133;28;20197;-77
2021/03/31 02:09:11;;;;;;;15.00;11.10;;;7.00;99.90;;;;;;5007384;28;20460;-78
2021/03/31 02:11:39;;;;;;;15.37;12.00;;;7.00;99.90;;;;;;5006822;28;20198;-77
2021/03/31 02:14:07;;;;;;;12.77;10.57;;;7.00;99.90;;;;;;5011119;28;20209;-77
2021/03/31 02:16:35;;;;;;;11.13;10.00;;;7.00;99.90;;;;;;4996132;28;20205;-77
2021/03/31 02:19:02;;;;;;;11.27;10.17;;;6.90;99.90;;;;;;5011239;28;20194;-78
2021/03/31 02:21:30;;;;;;;11.20;10.10;;;7.00;99.90;;;;;;5006297;28;20201;-77
2021/03/31 02:23:57;;;;;;;10.97;9.87;;;7.00;99.90;;;;;;5007971;28;20198;-78
2021/03/31 02:26:25;;;;;;;12.90;9.93;;;7.00;99.90;;;;;;5008031;28;20197;-78
2021/03/31 02:28:52;;;;;;;11.67;10.57;;;7.00;99.90;;;;;;5011182;28;20604;-78
2021/03/31 02:31:20;;;;;;;11.70;10.20;;;7.10;99.90;;;;;;5006816;28;20225;-79
2021/03/31 02:33:47;;;;;;;11.43;10.40;;;7.00;99.90;;;;;;5012507;28;20231;-78
2021/03/31 02:36:14;;;;;;;10.83;9.73;;;7.00;99.90;;;;;;5003781;28;20202;-78
2021/03/31 02:38:42;;;;;;;10.33;9.23;;;7.00;99.90;;;;;;5015877;28;20197;-79
2021/03/31 02:41:10;;;;;;;10.70;9.60;;;7.00;99.90;;;;;;4998217;28;20591;-79
2021/03/31 02:43:42;;;;;;;11.20;10.13;;;6.90;99.90;;;;;;5001674;28;20220;-78
2021/03/31 02:46:10;;;;;;;10.17;9.27;;;6.80;99.90;;;;;;4994220;28;20220;-78
2021/03/31 02:48:37;;;;;;;10.17;9.17;;;6.80;99.90;;;;;;4993756;28;20198;-78
2021/03/31 02:51:06;;;;;;;10.63;9.73;;;6.80;99.90;;;;;;4995286;28;20268;-77
2021/03/31 02:53:33;;;;;;;11.07;9.97;;;6.70;99.90;;;;;;5005655;28;20205;-78
2021/03/31 02:56:04;;;;;;;11.30;10.30;;;6.80;99.90;;;;;;5006468;28;20704;-78
2021/03/31 02:58:32;;;;;;;11.27;10.17;;;6.70;99.90;;;;;;5005946;28;20198;-78
2021/03/31 03:00:59;;;;;;;11.50;10.40;;;6.60;99.90;;;;;;5000883;28;20304;-78
2021/03/31 03:03:26;;;;;;;10.73;9.73;;;6.60;99.90;;;;;;4991037;28;20206;-80
2021/03/31 03:05:55;;;;;;;11.10;10.10;;;6.60;99.90;;;;;;4991568;28;20198;-78
2021/03/31 03:08:24;;;;;;;10.57;9.50;;;6.50;99.90;;;;;;4988818;28;20232;-78
2021/03/31 03:10:51;;;;;;;13.97;10.33;;;6.50;99.90;;;;;;4986106;28;20231;-78
2021/03/31 03:13:20;;;;;;;10.13;9.27;;;6.50;99.90;;;;;;5004765;28;20596;-79
2021/03/31 03:15:48;;;;;;;10.47;9.57;;;6.50;99.90;;;;;;5009009;28;20744;-80
2021/03/31 03:18:14;;;;;;;11.07;9.97;;;6.50;99.90;;;;;;4995459;28;20205;-80
2021/03/31 03:20:41;;;;;;;10.70;9.77;;;6.50;99.90;;;;;;5000332;28;20224;-80
2021/03/31 03:23:09;;;;;;;11.57;10.47;;;6.50;99.90;;;;;;4989051;28;20652;-79
2021/03/31 03:25:37;;;;;;;11.53;10.07;;;6.50;99.90;;;;;;4982271;28;20252;-76
2021/03/31 03:28:05;;;;;;;10.70;9.70;;;6.50;99.90;;;;;;4990455;28;20679;-76
2021/03/31 03:30:33;;;;;;;10.97;9.97;;;6.50;99.90;;;;;;4989204;28;20217;-77
2021/03/31 03:33:02;;;;;;;11.47;10.33;;;6.50;99.90;;;;;;4989940;28;20232;-77
2021/03/31 03:35:28;;;;;;;10.80;9.80;;;6.40;99.90;;;;;;4981385;28;20261;-76
2021/03/31 03:37:56;;;;;;;11.10;9.93;;;6.40;99.90;;;;;;5002085;28;20198;-76
2021/03/31 03:40:24;;;;;;;12.63;11.43;;;6.30;99.90;;;;;;5010725;28;20228;-76
2021/03/31 03:42:50;;;;;;;12.33;11.13;;;6.30;99.90;;;;;;4981285;28;20194;-77
2021/03/31 03:45:18;;;;;;;12.90;11.57;;;6.20;99.90;;;;;;4993286;28;20198;-76
2021/03/31 03:47:45;;;;;;;11.93;10.67;;;6.20;99.90;;;;;;4993236;28;20206;-76
2021/03/31 03:50:14;;;;;;;13.73;12.27;;;6.10;99.90;;;;;;4991977;28;20225;-76
2021/03/31 03:52:44;;;;;;;12.20;11.00;;;6.10;99.90;;;;;;4987914;28;20573;-77
2021/03/31 03:55:11;;;;;;;12.37;11.07;;;6.10;99.90;;;;;;4994623;28;20300;-76
2021/03/31 03:57:38;;;;;;;12.13;10.90;;;6.10;99.90;;;;;;4994078;28;20200;-76
2021/03/31 04:00:12;;;;;;;10.87;9.80;;;6.20;99.90;;;;;;4994360;28;20218;-76
2021/03/31 04:02:38;;;;;;;11.50;10.40;;;6.20;99.90;;;;;;4984803;28;20229;-76
2021/03/31 04:05:06;;;;;;;11.00;10.10;;;6.20;99.90;;;;;;4995281;28;20276;-77
2021/03/31 04:07:33;;;;;;;10.93;9.93;;;6.30;99.90;;;;;;4987540;28;20193;-77
2021/03/31 04:10:00;;;;;;;11.30;10.30;;;6.30;99.90;;;;;;4994154;28;20252;-77
2021/03/31 04:12:28;;;;;;;10.97;9.97;;;6.40;99.90;;;;;;5016298;28;20205;-76
2021/03/31 04:14:56;;;;;;;10.40;9.50;;;6.40;99.90;;;;;;4991738;28;20208;-76
2021/03/31 04:17:23;;;;;;;11.63;10.50;;;6.40;99.90;;;;;;4991765;28;20205;-76
2021/03/31 04:19:51;;;;;;;11.13;10.10;;;6.40;99.90;;;;;;4992577;28;20219;-77
2021/03/31 04:22:17;;;;;;;10.80;9.80;;;6.40;99.90;;;;;;4990347;28;20214;-77
2021/03/31 04:24:44;;;;;;;11.13;10.23;;;6.40;99.90;;;;;;4980404;28;20264;-76
2021/03/31 04:27:14;;;;;;;12.07;10.37;;;6.40;99.90;;;;;;4994896;28;20194;-76
2021/03/31 04:29:43;;;;;;;10.80;9.80;;;6.40;99.90;;;;;;4994254;28;20240;-76
2021/03/31 04:32:12;;;;;;;10.23;9.20;;;6.40;99.90;;;;;;4994437;28;20194;-76
2021/03/31 04:34:40;;;;;;;11.60;10.47;;;6.30;99.90;;;;;;4993019;28;20198;-76
2021/03/31 04:37:06;;;;;;;11.07;10.10;;;6.30;99.90;;;;;;5018501;28;20200;-76
2021/03/31 04:39:32;;;;;;;12.13;10.80;;;6.30;99.90;;;;;;5014219;28;20221;-77
2021/03/31 04:42:00;;;;;;;11.23;10.07;;;6.20;99.90;;;;;;4991858;28;20190;-76
2021/03/31 04:44:26;;;;;;;11.50;9.87;;;6.20;99.90;;;;;;4991724;28;20228;-77
2021/03/31 04:46:52;;;;;;;11.67;10.47;;;6.20;99.90;;;;;;4993634;28;20205;-76
2021/03/31 04:49:19;;;;;;;10.77;9.77;;;6.10;99.90;;;;;;5016536;28;20634;-77
2021/03/31 04:51:45;;;;;;;10.63;9.73;;;6.10;99.90;;;;;;4987097;28;20228;-76
2021/03/31 04:54:12;;;;;;;11.27;10.30;;;6.10;99.90;;;;;;4993373;28;20201;-76
2021/03/31 04:56:38;;;;;;;10.80;9.90;;;6.10;99.90;;;;;;4994616;28;20230;-76
2021/03/31 04:59:05;;;;;;;11.40;10.40;;;6.00;99.90;;;;;;4990509;28;20201;-76
2021/03/31 05:01:31;;;;;;;12.73;10.73;;;6.00;99.90;;;;;;4978693;28;20189;-76
2021/03/31 05:03:58;;;;;;;10.70;9.70;;;6.00;99.90;;;;;;4994716;28;20280;-76
2021/03/31 05:06:24;;;;;;;11.67;10.57;;;6.00;99.90;;;;;;4991871;28;20227;-76
2021/03/31 05:08:50;;;;;;;11.40;10.30;;;6.00;99.90;;;;;;4994268;28;20723;-76
2021/03/31 05:11:17;;;;;;;11.43;10.40;;;6.00;99.90;;;;;;5000461;28;20224;-75
2021/03/31 05:13:43;;;;;;;11.23;10.33;;;6.00;99.90;;;;;;5009553;28;20197;-79
2021/03/31 05:16:10;;;;;;;11.70;10.63;;;6.00;99.90;;;;;;5012093;28;20193;-76
2021/03/31 05:18:36;;;;;;;11.60;10.60;;;6.10;99.90;;;;;;5001984;28;20194;-75
2021/03/31 05:21:03;;;;;;;12.57;11.27;;;6.10;99.90;;;;;;5008596;28;20209;-76
2021/03/31 05:23:29;;;;;;;11.00;10.00;;;6.20;99.90;;;;;;4991768;28;20656;-76
2021/03/31 05:25:56;;;;;;;14.10;11.93;;;6.20;99.90;;;;;;4988600;28;20202;-76
2021/03/31 05:28:22;;;;;;;13.07;11.77;;;6.30;99.90;;;;;;4992406;28;20213;-75
2021/03/31 05:30:48;;;;;;;11.97;10.80;;;6.30;99.90;;;;;;4992287;28;20218;-74
2021/03/31 05:33:15;;;;;;;12.57;11.13;;;6.40;99.90;;;;;;4996412;28;20627;-75
2021/03/31 05:35:42;;;;;;;12.50;11.20;;;6.50;99.90;;;;;;5017500;28;20609;-75
2021/03/31 05:38:08;;;;;;;12.37;11.17;;;6.60;99.90;;;;;;4988179;28;20201;-75
2021/03/31 05:40:35;;;;;;;11.87;10.67;;;6.60;99.90;;;;;;4990830;28;20213;-75
2021/03/31 05:43:01;;;;;;;12.03;10.83;;;6.70;99.90;;;;;;4985038;28;20193;-75
2021/03/31 05:45:29;;;;;;;11.93;10.67;;;6.70;99.90;;;;;;4994096;28;20202;-75
2021/03/31 05:47:55;;;;;;;12.83;9.17;;;7.00;99.90;;;;;;5018505;28;20202;-74
2021/03/31 05:50:23;;;;;;;9.23;7.63;;;7.30;99.90;;;;;;4984708;28;20222;-76
2021/03/31 05:52:49;;;;;;;9.03;7.60;;;7.60;99.90;;;;;;5017635;28;20878;-75
2021/03/31 05:55:17;;;;;;;11.47;7.70;;;7.90;99.90;;;;;;4984152;28;20207;-76
2021/03/31 05:57:44;;;;;;;11.63;9.23;;;8.30;99.90;;;;;;5021811;28;20206;-75
2021/03/31 06:00:13;;;;;;;9.80;8.60;;;8.70;99.90;;;;;;4993614;28;20258;-79
2021/03/31 06:02:42;;;;;;;10.63;8.33;;;8.90;99.90;;;;;;5006517;28;20661;-80
2021/03/31 06:05:10;;;;;;;10.43;8.90;;;9.10;99.90;;;;;;4992999;28;20204;-77
2021/03/31 06:07:40;;;;;;;9.27;8.40;;;9.40;99.90;;;;;;5012612;28;20207;-77
2021/03/31 06:10:09;;;;;;;10.37;9.30;;;9.70;99.90;;;;;;4993282;28;20236;-77
2021/03/31 06:12:37;;;;;;;9.57;7.47;;;9.80;99.90;;;;;;4991457;28;20228;-78
2021/03/31 06:15:20;;;;;;;10.67;7.40;;;10.10;99.90;;;;;;4994841;28;20211;-78
2021/03/31 06:17:50;;;;;;;11.23;8.10;;;10.30;99.90;;;;;;5005615;28;20621;-78
2021/03/31 06:20:42;;;;;;;11.80;8.30;;;10.50;99.90;;;;;;4983385;28;20280;-78
2021/03/31 06:23:17;;;;;;;11.20;8.67;;;10.50;99.90;;;;;;4987157;28;20284;-78
2021/03/31 06:25:49;;;;;;;9.10;7.80;;;10.70;99.90;;;;;;4992922;28;20188;-76
2021/03/31 06:28:27;;;;;;;9.93;7.70;;;10.70;99.90;;;;;;4992129;28;20207;-77
2021/03/31 06:31:09;;;;;;;8.10;7.00;;;10.70;99.90;;;;;;4989414;28;20220;-78
2021/03/31 06:33:36;;;;;;;8.13;6.97;;;10.60;99.90;;;;;;4990253;28;20212;-78
2021/03/31 06:36:04;;;;;;;7.43;6.27;;;10.50;99.90;;;;;;4994879;28;20254;-77
2021/03/31 06:38:33;;;;;;;8.60;7.33;;;10.50;99.90;;;;;;4995907;28;20201;-77
2021/03/31 06:41:11;;;;;;;8.67;7.20;;;10.40;99.90;;;;;;5014314;28;20332;-78
2021/03/31 06:43:45;;;;;;;8.07;6.80;;;10.40;99.90;;;;;;4994423;28;20692;-78
2021/03/31 06:46:18;;;;;;;8.63;7.80;;;10.50;99.90;;;;;;4992818;28;20204;-78
2021/03/31 06:48:48;;;;;;;8.20;7.43;;;10.60;99.90;;;;;;4990745;28;20198;-77
2021/03/31 06:51:25;;;;;;;8.37;7.67;;;10.80;99.90;;;;;;4991903;28;20233;-78
2021/03/31 06:53:52;;;;;;;9.03;7.50;;;11.00;99.90;;;;;;4992392;28;20201;-78
2021/03/31 06:56:27;;;;;;;6.73;6.13;;;11.30;99.90;;;;;;4992872;28;20666;-77
2021/03/31 06:59:01;;;;;;;8.50;7.57;;;11.60;99.90;;;;;;4994573;28;20220;-78
2021/03/31 07:01:31;;;;;;;10.30;6.90;;;11.80;99.90;;;;;;4988146;28;20556;-78
2021/03/31 07:04:01;;;;;;;9.00;8.10;;;12.10;99.90;;;;;;4989749;28;20298;-78
2021/03/31 07:06:27;;;;;;;10.43;8.23;;;12.20;99.90;;;;;;4985857;28;20202;-77
2021/03/31 07:08:54;;;;;;;8.87;7.97;;;12.30;99.90;;;;;;4993878;28;20614;-78
2021/03/31 07:11:40;;;;;;;9.70;5.90;;;12.50;99.90;;;;;;5015773;23;20230;-79
2021/03/31 07:14:09;;;;;;;8.13;6.80;;;12.70;99.90;;;;;;4988697;28;20254;-77
2021/03/31 07:16:36;;;;;;;9.90;5.80;;;12.90;99.90;;;;;;4987294;28;20255;-78
2021/03/31 07:19:03;;;;;;;8.73;5.57;;;13.20;99.90;;;;;;4993483;28;20203;-79
2021/03/31 07:21:31;;;;;;;9.33;6.87;;;13.40;99.90;;;;;;4982999;28;20223;-78
2021/03/31 07:23:59;;;;;;;9.50;8.30;;;13.80;99.90;;;;;;4993880;28;20192;-79
2021/03/31 07:26:25;;;;;;;9.40;8.40;;;14.10;99.90;;;;;;5015171;28;20205;-79
2021/03/31 07:28:52;;;;;;;7.90;7.10;;;14.20;99.90;;;;;;4993023;28;20193;-78
2021/03/31 07:31:23;;;;;;;9.53;6.83;;;14.30;99.90;;;;;;4999094;28;20225;-78
2021/03/31 07:34:19;;;;;;;8.17;6.73;;;14.30;99.90;;;;;;4993370;28;20200;-78
2021/03/31 07:36:48;;;;;;;8.93;8.03;;;14.40;99.90;;;;;;4966137;28;20582;-79
2021/03/31 07:39:18;;;;;;;8.63;6.33;;;14.60;99.90;;;;;;4991417;28;20201;-79
2021/03/31 07:41:46;;;;;;;10.20;7.17;;;14.60;99.90;;;;;;4989987;28;20695;-79
2021/03/31 07:44:18;;;;;;;12.30;8.70;;;14.80;99.90;;;;;;4992530;28;20193;-79
2021/03/31 07:46:46;;;;;;;10.77;9.77;;;15.00;99.90;;;;;;5006315;28;20579;-79
2021/03/31 07:49:14;;;;;;;10.93;9.83;;;15.10;99.90;;;;;;4986652;28;20198;-79
2021/03/31 07:51:55;;;;;;;11.17;10.07;;;15.00;99.90;;;;;;4992996;28;20221;-79
2021/03/31 07:54:22;;;;;;;10.63;9.73;;;15.00;99.90;;;;;;4990801;28;20224;-79
2021/03/31 07:56:48;;;;;;;10.87;9.20;;;14.90;99.90;;;;;;4991690;28;20305;-80
2021/03/31 07:59:18;;;;;;;12.07;10.67;;;15.00;99.90;;;;;;4988233;28;20203;-79
2021/03/31 08:01:47;;;;;;;10.60;9.50;;;15.10;99.90;;;;;;4978644;28;20217;-79
2021/03/31 08:04:15;;;;;;;11.17;9.60;;;15.40;99.90;;;;;;4989929;28;20197;-78
2021/03/31 08:06:43;;;;;;;11.63;10.53;;;15.40;99.90;;;;;;5006013;28;20205;-79
2021/03/31 08:09:11;;;;;;;9.93;9.10;;;15.50;99.90;;;;;;4990838;28;20203;-79
2021/03/31 08:11:52;;;;;;;10.30;9.30;;;15.80;99.90;;;;;;4999517;28;20225;-79
2021/03/31 08:14:39;;;;;;;10.90;9.80;;;16.10;99.90;;;;;;4987823;28;20207;-79
2021/03/31 08:17:07;;;;;;;11.03;9.93;;;16.40;99.90;;;;;;4992087;28;20203;-78
2021/03/31 08:19:37;;;;;;;11.27;10.17;;;16.70;99.90;;;;;;4985158;28;20219;-79
2021/03/31 08:22:19;;;;;;;10.10;9.10;;;16.80;99.90;;;;;;4989692;28;20223;-79
2021/03/31 08:24:47;;;;;;;10.67;9.67;;;17.30;99.90;;;;;;4992009;28;20667;-80
2021/03/31 08:27:15;;;;;;;10.97;9.93;;;17.70;99.90;;;;;;4994304;28;20204;-79
2021/03/31 08:29:48;;;;;;;10.53;9.43;;;18.00;99.90;;;;;;4998031;28;20200;-80
2021/03/31 08:32:15;;;;;;;10.47;9.47;;;18.40;99.90;;;;;;4997156;28;20204;-81
2021/03/31 08:34:43;;;;;;;10.67;9.33;;;18.70;99.80;;;;;;5001385;28;20189;-80
2021/03/31 08:37:23;;;;;;;12.80;10.50;;;19.00;98.70;;;;;;4994948;28;20205;-78
2021/03/31 08:39:50;;;;;;;12.23;10.90;;;19.00;98.80;;;;;;4990755;28;20667;-78
2021/03/31 08:42:18;;;;;;;11.67;10.50;;;18.90;98.80;;;;;;4993938;28;20197;-79
2021/03/31 08:44:49;;;;;;;11.13;10.10;;;19.20;98.10;;;;;;4993698;28;20539;-79
2021/03/31 08:47:18;;;;;;;12.53;11.23;;;19.40;98.00;;;;;;4989514;28;20209;-78
2021/03/31 08:49:45;;;;;;;14.00;10.70;;;19.70;96.50;;;;;;4991945;28;20228;-79
2021/03/31 08:52:14;;;;;;;12.90;11.60;;;19.60;96.10;;;;;;4993627;28;20206;-80
2021/03/31 08:54:43;;;;;;;13.27;12.07;;;20.00;96.00;;;;;;5015580;28;20215;-81
2021/03/31 08:57:11;;;;;;;11.57;10.57;;;20.20;95.40;;;;;;4995266;28;20303;-78
2021/03/31 08:59:40;;;;;;;11.23;9.97;;;20.50;95.10;;;;;;4987524;28;20211;-79
2021/03/31 09:02:07;;;;;;;9.27;8.17;;;20.80;93.30;;;;;;4994767;28;20210;-79
2021/03/31 09:04:34;;;;;;;10.60;8.27;;;20.70;93.70;;;;;;4991499;28;20212;-79
2021/03/31 09:07:03;;;;;;;12.63;11.43;;;20.90;94.00;;;;;;4992742;28;20200;-79
2021/03/31 09:09:33;;;;;;;14.20;11.83;;;20.40;94.10;;;;;;4982297;28;20212;-78
2021/03/31 09:12:00;;;;;;;12.50;11.30;;;20.30;94.00;;;;;;4986482;28;20195;-79
2021/03/31 09:14:27;;;;;;;11.33;10.23;;;20.40;93.70;;;;;;5009462;28;20586;-79
2021/03/31 09:16:56;;;;;;;14.47;11.73;;;20.90;93.50;;;;;;5003675;28;20208;-79
2021/03/31 09:19:24;;;;;;;13.07;11.77;;;21.10;92.50;;;;;;4991940;28;20663;-79
2021/03/31 09:21:50;;;;;;;13.73;12.17;;;21.30;92.90;;;;;;4987329;28;20648;-79
2021/03/31 09:24:17;;;;;;;12.50;11.37;;;21.40;91.80;;;;;;4994837;28;20236;-78
2021/03/31 09:27:02;;;;;;;12.47;11.17;;;21.60;92.60;;;;;;5002639;28;20197;-81
2021/03/31 09:29:29;;;;;;;14.17;12.07;;;22.10;92.10;;;;;;5006341;28;20215;-78
2021/03/31 09:31:57;;;;;;;14.00;11.50;;;22.30;90.70;;;;;;5002775;28;20193;-80
2021/03/31 09:34:24;;;;;;;11.87;10.53;;;22.40;90.10;;;;;;4995925;28;20666;-79
2021/03/31 09:37:01;;;;;;;11.90;10.70;;;22.30;90.30;;;;;;4994662;28;21056;-80
2021/03/31 09:39:45;;;;;;;12.87;11.73;;;22.50;90.60;;;;;;4994526;28;20204;-80
2021/03/31 09:42:17;;;;;;;12.43;11.23;;;22.40;89.10;;;;;;4999639;28;20690;-80
2021/03/31 09:44:43;;;;;;;12.97;11.27;;;22.70;90.20;;;;;;5011537;28;20205;-79
2021/03/31 09:47:10;;;;;;;13.50;10.60;;;22.60;90.20;;;;;;5003698;28;20213;-78
2021/03/31 09:49:37;;;;;;;14.13;11.87;;;22.70;90.30;;;;;;5000843;28;20205;-79
2021/03/31 09:52:05;;;;;;;11.50;10.50;;;22.50;88.80;;;;;;4993537;28;20200;-78
2021/03/31 09:54:31;;;;;;;11.57;10.47;;;22.80;88.60;;;;;;4990850;28;20204;-78
2021/03/31 09:56:59;;;;;;;10.40;9.50;;;23.20;89.20;;;;;;4989026;28;20670;-78
2021/03/31 09:59:26;;;;;;;11.60;10.50;;;23.30;86.80;;;;;;5004348;28;20209;-79
2021/03/31 10:01:52;;;;;;;13.23;10.83;;;23.30;86.40;;;;;;4993530;28;20217;-79
2021/03/31 10:04:20;;;;;;;11.93;10.47;;;23.30;85.20;;;;;;4991313;28;20197;-78
2021/03/31 10:07:06;;;;;;;12.47;11.20;;;23.30;86.00;;;;;;5007639;28;20204;-78
2021/03/31 10:09:39;;;;;;;12.23;10.90;;;23.00;86.00;;;;;;4994965;28;20224;-78
2021/03/31 10:12:07;;;;;;;11.97;10.77;;;23.10;86.20;;;;;;5004527;28;20254;-78
2021/03/31 10:14:41;;;;;;;11.67;10.57;;;23.10;86.10;;;;;;4997580;28;20224;-77
2021/03/31 10:17:09;;;;;;;11.67;10.50;;;23.30;85.70;;;;;;4991735;28;20224;-81
2021/03/31 10:19:36;;;;;;;11.33;10.23;;;23.20;84.70;;;;;;4992402;28;20208;-82
2021/03/31 10:22:05;;;;;;;14.10;12.13;;;23.10;84.70;;;;;;4997338;28;20562;-80
2021/03/31 10:24:37;;;;;;;12.37;11.17;;;23.00;85.50;;;;;;4990857;28;20205;-79
2021/03/31 10:27:04;;;;;;;11.80;10.60;;;22.80;86.30;;;;;;4996583;28;20654;-81
2021/03/31 10:29:30;;;;;;;11.27;10.17;;;22.90;85.90;;;;;;4987008;28;20197;-80
2021/03/31 10:31:58;;;;;;;10.80;9.80;;;22.90;84.10;;;;;;4998956;28;20207;-80
2021/03/31 10:34:40;;;;;;;10.10;9.10;;;22.90;84.00;;;;;;5000264;28;20263;-80
2021/03/31 10:37:13;;;;;;;12.43;11.13;;;22.80;83.10;;;;;;4993970;28;20193;-79
2021/03/31 10:48:23;;;;;;;10.00;8.97;;;22.80;79.40;;;;;;4986231;28;20316;-78
2021/03/31 10:50:52;;;;;;;9.57;8.53;;;22.60;78.60;;;;;;4991776;28;20418;-79
2021/03/31 10:53:18;;;;;;;10.00;9.00;;;22.60;78.90;;;;;;4989670;28;20209;-78
2021/03/31 10:55:46;;;;;;;9.03;8.13;;;22.50;75.20;;;;;;4988114;28;20575;-79
2021/03/31 10:58:13;;;;;;;8.80;8.00;;;22.50;76.20;;;;;;4990620;28;20317;-79
2021/03/31 11:00:39;;;;;;;8.47;7.77;;;22.40;74.70;;;;;;4986962;28;20686;-78
2021/03/31 11:03:08;;;;;;;8.23;7.43;;;22.50;74.90;;;;;;4991983;28;20559;-78
2021/03/31 11:05:35;;;;;;;8.27;7.50;;;22.50;73.30;;;;;;4984967;28;20248;-78
2021/03/31 11:08:02;;;;;;;9.97;7.60;;;22.50;74.60;;;;;;4984564;28;20203;-78
2021/03/31 11:10:29;;;;;;;8.50;7.80;;;22.50;75.20;;;;;;4989166;28;20253;-78
2021/03/31 11:12:55;;;;;;;8.33;7.53;;;22.50;72.10;;;;;;4991505;28;20243;-78
2021/03/31 11:15:23;;;;;;;7.27;6.67;;;22.40;71.20;;;;;;4994784;28;20212;-79
2021/03/31 11:17:59;;;;;;;6.83;6.20;;;22.50;73.10;;;;;;4983573;28;20243;-80
2021/03/31 11:20:40;;;;;;;7.27;6.60;;;22.50;70.40;;;;;;4991909;28;20221;-82
2021/03/31 11:25:53;;;;;;;7.53;6.93;;;22.50;70.20;;;;;;4994153;28;20196;-80
2021/03/31 11:28:20;;;;;;;8.43;6.93;;;22.50;69.80;;;;;;4993326;28;20255;-80
2021/03/31 11:30:46;;;;;;;6.97;6.37;;;22.60;68.90;;;;;;5002255;28;20227;-80
2021/03/31 11:33:13;;;;;;;7.10;6.50;;;22.60;67.00;;;;;;4993332;28;20576;-80
2021/03/31 11:35:40;;;;;;;8.17;7.47;;;22.60;68.30;;;;;;5015238;28;20205;-80
2021/03/31 11:38:07;;;;;;;8.60;7.70;;;22.60;68.80;;;;;;4995219;28;20197;-79
2021/03/31 11:40:34;;;;;;;7.60;7.00;;;22.70;68.20;;;;;;4992130;28;20217;-81
2021/03/31 11:43:00;;;;;;;6.63;6.13;;;22.60;66.10;;;;;;4993387;28;20207;-80
2021/03/31 11:45:27;;;;;;;7.10;6.50;;;22.70;67.10;;;;;;4993377;28;20231;-81
2021/03/31 11:47:53;;;;;;;6.93;6.43;;;22.70;67.20;;;;;;4993279;28;20205;-80
2021/03/31 11:50:24;;;;;;;6.67;6.17;;;22.80;65.60;;;;;;4994899;28;20260;-81
2021/03/31 11:52:52;;;;;;;6.43;5.93;;;22.70;65.50;;;;;;4994280;28;20200;-80
2021/03/31 11:55:19;;;;;;;6.17;5.77;;;22.60;62.10;;;;;;4996410;28;20205;-80
2021/03/31 11:57:45;;;;;;;6.43;5.93;;;22.60;63.70;;;;;;5000305;28;20347;-80
2021/03/31 12:00:12;;;;;;;7.27;6.57;;;22.60;63.10;;;;;;4979272;28;20214;-79
2021/03/31 12:02:39;;;;;;;7.03;6.27;;;22.60;63.50;;;;;;4994065;28;20212;-79
2021/03/31 12:05:06;;;;;;;7.27;6.67;;;22.50;63.60;;;;;;4999655;28;20198;-82
2021/03/31 12:07:32;;;;;;;6.77;6.17;;;22.50;64.30;;;;;;4999086;28;20218;-80
2021/03/31 12:10:01;;;;;;;6.70;6.10;;;22.60;63.60;;;;;;4984742;28;20229;-79
2021/03/31 12:12:28;;;;;;;6.90;6.40;;;22.60;63.50;;;;;;4989952;28;20237;-80
2021/03/31 12:14:54;;;;;;;7.27;6.63;;;22.60;63.10;;;;;;4984999;28;20202;-80
2021/03/31 12:17:20;;;;;;;7.67;6.97;;;22.60;61.70;;;;;;4985380;28;20253;-80
2021/03/31 12:19:47;;;;;;;7.23;6.50;;;22.60;62.60;;;;;;4985748;28;20218;-81
2021/03/31 12:22:13;;;;;;;7.03;6.47;;;22.50;62.30;;;;;;4982687;28;20593;-81
2021/03/31 12:24:39;;;;;;;7.63;6.47;;;22.50;62.30;;;;;;4985686;28;20259;-79
2021/03/31 12:27:08;;;;;;;7.13;6.53;;;22.60;61.90;;;;;;4996812;28;20225;-81
2021/03/31 12:29:36;;;;;;;7.43;6.73;;;22.60;60.70;;;;;;4998324;28;20202;-80
2021/03/31 12:32:03;;;;;;;6.30;5.90;;;22.50;58.60;;;;;;4996950;28;20206;-80
2021/03/31 12:34:29;;;;;;;6.10;5.70;;;22.50;57.40;;;;;;4988217;28;20255;-81
2021/03/31 12:36:56;;;;;;;5.77;5.27;;;22.50;56.60;;;;;;4997570;28;20221;-81
2021/03/31 12:39:22;;;;;;;6.13;5.73;;;22.60;57.30;;;;;;4984878;28;20205;-82
2021/03/31 12:41:49;;;;;;;5.60;5.20;;;22.60;56.50;;;;;;4986978;28;20228;-80
2021/03/31 12:44:16;;;;;;;5.83;5.43;;;22.50;56.10;;;;;;5002067;28;20209;-80
2021/03/31 12:46:43;;;;;;;5.90;5.50;;;22.60;55.70;;;;;;5001030;28;20225;-81
2021/03/31 12:49:09;;;;;;;6.37;5.77;;;22.50;54.70;;;;;;4991411;28;20607;-79
2021/03/31 12:51:38;;;;;;;6.10;5.50;;;22.50;58.00;;;;;;5007259;28;20259;-78
2021/03/31 12:54:09;;;;;;;6.53;5.93;;;22.40;58.00;;;;;;5011349;28;20205;-79
2021/03/31 12:56:35;;;;;;;6.40;5.80;;;22.40;57.30;;;;;;5003498;28;20677;-79
2021/03/31 12:59:02;;;;;;;6.03;5.57;;;22.40;56.70;;;;;;4998596;28;20196;-78
2021/03/31 13:01:29;;;;;;;5.73;5.23;;;22.50;56.30;;;;;;4998284;28;20356;-77